LGZALGKR

Guest
Details From LGZA - Dionysios_Solomos
To LGKR - IOANNIS KAPODISTRIAS INTL
Flight Number -
Tags decoded
Created
Modified
Stats Distance 120 nm / 222 km
Max Altitude 0 ft / 0 m
Waypoints 2
Social Downloads 3
Likes 0
Share VATSIM

Download

Looking for another format? Having issues loading an existing format? Contact us
Advertisement - Login to hide

Notes

Requested: LGZA OSDES OY302 SOTEG A14 MALED LGKR Unmatched points: OSDES OY302 SOTEG A14 MALED

Route

LGZA LGKR

ID Type Via Altitude Latitude Longitude Leg Dist Tot Dist Heading (true) Name
O LGZA APT - 0 ft / 0 m 37.75123˚ 20.88411˚ - 0 nm - Dionysios_Solomos
O LGKR APT - 0 ft / 0 m 39.60178˚ 19.91191˚ 120 nm 120 nm 338° / 337° IOANNIS KAPODISTRIAS INTL

Altitude Profile

Advertisement - Login to hide

LGZA

Details ICAO LGZA (ZTH)
Name Dionysios Solomos
Region Greece
Timezone Europe/Athens (UTC+3.0)
Stats Elevation 14 ft / 4 m (AMSL)
Location 37.751230° 20.884106°
Runways 1
Magnetic Variation 4.115° E

METAR

LGZA 240820Z 35006KT 9999 FEW020 25/18 Q1014

Decode

TAF

Not found

Departure Runways

ID Width Length Bearing (true) Bearing (mag) Surface Threshold Offset Overrun Length
16 148 ft / 45 m 7,315 ft / 2,230 m 163.49° 159.38° Asphalt 715 ft / 218 m 112 ft / 34 m
34 148 ft / 45 m 7,315 ft / 2,230 m 343.49° 339.38° Asphalt 728 ft / 222 m 135 ft / 41 m

LGKR

Details ICAO LGKR (CFU)
Name IOANNIS KAPODISTRIAS INTL
Region Greece
Timezone Europe/Athens (UTC+3.0)
Stats Elevation 6 ft / 2 m (AMSL)
Location 39.601779° 19.911908°
Runways 1
Magnetic Variation 4.142° E

METAR

LGKR 240820Z 07003KT 9999 SCT018 22/18 Q1014 NOSIG

Decode

TAF

TAF LGKR 240500Z 2406/2506 VRB05KT 9999 SCT015 BKN025 BKN070 PROB40 TEMPO 2406/2414 5000 RA SCT012 BKN020 BKN070 BECMG 2410/2412 31010KT SCT020 SCT070

Decode

Destination Runways

ID Width Length Bearing (true) Bearing (mag) Surface Threshold Offset Overrun Length
17 148 ft / 45 m 7,815 ft / 2,382 m 168.81° 164.67° Asphalt 1,348 ft / 411 m 0 ft / 0 m
35 148 ft / 45 m 7,815 ft / 2,382 m 348.81° 344.67° Asphalt 213 ft / 65 m 0 ft / 0 m

Popular Alternatives